East Middlebury, Vermont
Current Conditions -  °F | °C
As of 8:15 AM on Thursday 30 Oct 2014 (Local Time) from K6B0 Reporting Station
Drizzle Drizzle  
Wind Chill:   Ceiling: 3800
Heat Index:   Visibility: 10mi
Dew Point:   Wind: 3mph
Humidity: 80%   Direction: 320°NW
Pressure: 29.93"   Gusts: NA
Location:  43.97°N, 73.11°W
Report Text: K6B0 301215Z AUTO 32003KT 10SM DZ SCT028 OVC038 08/05 A2993 RMK AO2 T00790046
Loading
Personal Weather Stations






























Interactive Weather Map
Tropical Storm Tracking
New forecast layout! Learn more

10-Day Weather Forecast

Advertisements
Track Severe Weather on mobile